OS58 weather

Hamah Air Base
Hama Governorate, Syria

Public forecast

Using degrees Celsius for public forecast. Weather courtesy of forecast.io.

Closest aviation weather report (METAR) to Hamah Air Base

Closest report is Bassel Al-Assad International Airport, 41.1 nm (76.0 km) WNW. Retrieved 2019/12/10 03:00 UTC (2 hours ago):

OSLK 100300Z 03002KT 9999 FEW030 SCT100 09/08 Q1014

Closest aviation forecast (TAF) to Hamah Air Base

Forecast is more than 12 hours old.

Closest forecast is Bassel Al-Assad International Airport, 41.1 nm (76.0 km) WNW. Retrieved 2019/12/08 06:36 UTC (2 days ago):

TAF TAF OSLK 080500Z 0806/0906 25010G15KT 7000 SHRA FEW026CB SCT030 BKN100 TEMPO 0818/0903 11015G20KT SHRA FEW026CB SCT030 BKN100